Time;durP1;ratioP1;P1;durP2;ratioP2;P2;SDS_P1;SDS_P2;PMS_P1;PMS_P2;Temp;Humidity;BMP_temperature;BMP_pressure;BME280_temperature;BME280_humidity;BME280_pressure;Samples;Min_cycle;Max_cycle;Signal;HPM_P1;HPM_P2
2022/05/30 00:01:20;;;;;;;2.13;1.10;;;;;;;11.26;67.88;100056.38;1777518;80;21051;-76
2022/05/30 00:03:48;;;;;;;3.47;1.60;;;;;;;11.23;68.07;100053.05;1777803;80;21040;-76
2022/05/30 00:06:20;;;;;;;2.33;1.33;;;;;;;11.16;68.13;100053.77;1777481;80;21005;-76
2022/05/30 00:08:47;;;;;;;4.07;1.60;;;;;;;11.10;68.33;100048.80;1777800;80;21108;-76
2022/05/30 00:11:16;;;;;;;4.03;1.20;;;;;;;11.06;68.20;100048.10;1777398;80;21019;-76
2022/05/30 00:13:44;;;;;;;2.07;1.10;;;;;;;11.02;68.17;100045.67;1777719;80;21489;-76
2022/05/30 00:16:16;;;;;;;2.20;1.17;;;;;;;10.95;68.47;100047.73;1777491;80;20997;-76
2022/05/30 00:18:43;;;;;;;2.80;1.40;;;;;;;10.93;68.59;100046.94;1777610;80;21565;-76
2022/05/30 00:21:11;;;;;;;1.93;1.30;;;;;;;10.88;68.58;100045.81;1777482;80;21958;-76
2022/05/30 00:23:40;;;;;;;3.53;1.70;;;;;;;10.85;68.90;100042.02;1777307;80;21024;-76
2022/05/30 00:26:08;;;;;;;4.43;1.60;;;;;;;10.85;69.21;100042.02;1777545;80;21015;-76
2022/05/30 00:28:36;;;;;;;3.40;1.30;;;;;;;10.85;69.12;100041.17;1777392;80;21090;-76
2022/05/30 00:31:11;;;;;;;5.87;1.90;;;;;;;10.82;69.32;100036.92;1777455;80;21051;-76
2022/05/30 00:33:40;;;;;;;4.13;1.47;;;;;;;10.79;69.51;100040.14;1777463;80;21088;-76
2022/05/30 00:36:08;;;;;;;2.30;1.37;;;;;;;10.79;69.59;100040.14;1777713;80;21537;-76
2022/05/30 00:38:36;;;;;;;3.43;1.43;;;;;;;10.75;69.64;100042.48;1777538;80;21702;-76
2022/05/30 00:41:04;;;;;;;2.07;1.50;;;;;;;10.74;69.88;100048.66;1777509;80;21035;-76
2022/05/30 00:43:35;;;;;;;2.77;1.30;;;;;;;10.72;70.01;100043.47;1777483;80;21028;-76
2022/05/30 00:46:12;;;;;;;3.37;1.50;;;;;;;10.69;70.20;100044.91;1777446;80;21802;-76
2022/05/30 00:48:58;;;;;;;4.30;1.70;;;;;;;10.67;70.39;100037.60;1777392;80;21593;-76
2022/05/30 00:51:29;;;;;;;3.87;1.90;;;;;;;10.66;70.39;100038.50;1777916;80;21485;-76
2022/05/30 00:53:59;;;;;;;4.33;1.80;;;;;;;10.63;70.47;100034.70;1777539;80;20989;-76
2022/05/30 00:56:31;;;;;;;2.67;1.50;;;;;;;10.65;70.43;100037.66;1777789;80;21611;-76
2022/05/30 00:58:59;;;;;;;3.17;1.83;;;;;;;10.62;70.44;100032.55;1737626;80;21494;-76
2022/05/30 01:01:31;;;;;;;2.93;1.37;;;;;;;10.62;70.37;100029.92;1777616;80;21011;-76
2022/05/30 01:06:51;;;;;;;3.30;1.50;;;;;;;10.61;70.65;100024.27;1777914;80;21039;-76
2022/05/30 01:09:23;;;;;;;3.98;1.40;;;;;;;10.55;70.64;100025.00;1777693;80;21019;-76
2022/05/30 01:12:01;;;;;;;4.37;1.70;;;;;;;10.52;70.75;100025.98;1777668;80;21102;-76
2022/05/30 01:14:35;;;;;;;3.00;1.43;;;;;;;10.57;70.86;100027.11;1773944;80;21513;-76
2022/05/30 01:17:08;;;;;;;3.20;1.40;;;;;;;10.51;70.88;100022.98;1768183;80;21039;-76
2022/05/30 01:19:57;;;;;;;4.50;1.60;;;;;;;10.49;70.97;100025.66;1736699;80;21039;-76
2022/05/30 01:22:52;;;;;;;1.82;1.10;;;;;;;10.47;71.06;100026.64;1777564;80;21542;-76
2022/05/30 01:25:42;;;;;;;2.70;1.50;;;;;;;10.43;70.86;100028.55;1763433;80;21107;-76
2022/05/30 01:28:40;;;;;;;3.47;1.50;;;;;;;10.33;70.94;100026.38;1775990;80;21546;-76
2022/05/30 01:31:09;;;;;;;2.70;1.30;;;;;;;10.25;70.96;100031.89;1777359;80;21034;-76
2022/05/30 01:33:37;;;;;;;3.03;1.37;;;;;;;10.16;71.13;100024.42;1777470;80;20988;-76
2022/05/30 01:36:06;;;;;;;4.33;1.50;;;;;;;10.10;70.91;100024.69;1772583;80;21051;-76
2022/05/30 01:38:33;;;;;;;3.03;1.23;;;;;;;10.04;71.16;100016.63;1777499;80;21803;-76
2022/05/30 01:41:01;;;;;;;4.60;1.40;;;;;;;9.97;70.90;100024.31;1777581;80;21038;-76
2022/05/30 01:43:29;;;;;;;4.40;1.50;;;;;;;9.86;71.09;100028.67;1777436;80;21058;-76
2022/05/30 01:46:06;;;;;;;3.13;1.77;;;;;;;9.80;71.04;100030.23;1777542;80;21039;-76
2022/05/30 01:48:35;;;;;;;3.93;1.60;;;;;;;9.75;71.19;100024.32;1777467;80;20980;-76
2022/05/30 01:51:04;;;;;;;4.17;1.77;;;;;;;9.68;71.13;100024.19;1777541;80;21068;-76
2022/05/30 01:53:32;;;;;;;2.93;1.50;;;;;;;9.57;71.07;100024.61;1777298;80;21541;-76
2022/05/30 01:56:04;;;;;;;4.43;1.77;;;;;;;9.46;71.09;100023.70;1755518;80;21096;-77
2022/05/30 01:58:32;;;;;;;3.73;1.47;;;;;;;9.37;71.26;100022.77;1740232;80;21025;-76
2022/05/30 02:01:24;;;;;;;3.13;1.67;;;;;;;9.29;71.25;100022.20;1638025;86;21490;-76
2022/05/30 02:03:53;;;;;;;3.90;1.93;;;;;;;9.19;71.48;100022.98;1614754;87;22022;-76
2022/05/30 02:06:23;;;;;;;4.80;1.40;;;;;;;9.14;71.66;100025.79;1678068;80;21044;-76
2022/05/30 02:08:52;;;;;;;4.30;1.53;;;;;;;9.06;71.63;100021.30;1740260;80;21611;-76
2022/05/30 02:11:20;;;;;;;5.83;1.57;;;;;;;8.99;71.60;100018.95;1740487;80;21037;-76
2022/05/30 02:13:47;;;;;;;2.47;1.37;;;;;;;8.88;71.74;100011.50;1740372;80;21298;-76
2022/05/30 02:19:21;;;;;;;2.83;1.73;;;;;;;8.76;72.02;100014.53;1740417;80;21550;-76
2022/05/30 02:21:48;;;;;;;3.47;1.30;;;;;;;8.69;72.25;100012.14;1740492;80;21045;-76
2022/05/30 02:24:16;;;;;;;3.77;1.77;;;;;;;8.66;72.62;100014.88;1740735;80;21563;-76
2022/05/30 02:26:45;;;;;;;2.70;1.60;;;;;;;8.67;72.47;100015.29;1770759;79;20980;-76
2022/05/30 02:29:13;;;;;;;5.47;1.83;;;;;;;8.63;72.61;100014.98;1785700;79;21104;-76
2022/05/30 02:31:45;;;;;;;4.77;1.70;;;;;;;8.59;72.52;100019.93;1785696;79;21015;-76
2022/05/30 02:36:58;;;;;;;3.40;1.70;;;;;;;8.49;72.82;100008.09;1785673;79;21054;-76
2022/05/30 02:39:29;;;;;;;3.73;1.60;;;;;;;8.47;73.09;100009.89;1785628;79;21004;-76
2022/05/30 02:41:56;;;;;;;3.10;1.50;;;;;;;8.45;73.21;100009.08;1785588;80;21207;-76
2022/05/30 02:44:26;;;;;;;3.57;1.50;;;;;;;8.44;73.43;100009.55;1785597;79;21011;-76
2022/05/30 02:46:57;;;;;;;3.30;1.77;;;;;;;8.43;73.37;100010.46;1785878;80;25482;-76
2022/05/30 02:49:26;;;;;;;2.47;1.47;;;;;;;8.41;73.54;100015.33;1780654;79;21032;-76
2022/05/30 02:51:55;;;;;;;4.17;1.70;;;;;;;8.41;73.60;100018.79;1750704;80;21075;-76
2022/05/30 02:54:24;;;;;;;3.20;1.40;;;;;;;8.38;73.50;100030.62;1750947;80;21114;-76
2022/05/30 02:56:58;;;;;;;2.53;1.50;;;;;;;8.34;73.62;100019.89;1750652;80;21591;-76
2022/05/30 02:59:28;;;;;;;3.07;1.60;;;;;;;8.30;73.46;100026.56;1750898;80;21069;-76
2022/05/30 03:01:56;;;;;;;5.50;1.40;;;;;;;8.24;73.65;100021.09;1749765;80;21010;-76
2022/05/30 03:04:24;;;;;;;4.23;1.63;;;;;;;8.21;73.70;100025.12;1751044;80;21036;-76
2022/05/30 03:06:51;;;;;;;2.93;1.60;;;;;;;8.19;73.86;100023.00;1750791;80;21780;-76
2022/05/30 03:09:20;;;;;;;3.90;1.63;;;;;;;8.18;73.88;100025.22;1750620;80;21091;-76
2022/05/30 03:11:49;;;;;;;6.33;2.10;;;;;;;8.13;73.63;100023.21;1742280;80;21497;-76
2022/05/30 03:14:17;;;;;;;3.30;1.77;;;;;;;8.15;74.11;100024.02;1750682;80;21002;-76
2022/05/30 03:16:44;;;;;;;3.20;1.70;;;;;;;8.15;74.11;100026.17;1750732;80;21660;-76
2022/05/30 03:19:11;;;;;;;3.70;1.77;;;;;;;8.13;74.20;100027.97;1750866;80;21099;-76
2022/05/30 03:21:38;;;;;;;3.27;1.70;;;;;;;8.10;74.09;100022.86;1750669;80;21515;-76
2022/05/30 03:24:08;;;;;;;2.27;1.70;;;;;;;8.09;74.41;100018.52;1763415;80;21042;-76
2022/05/30 03:26:39;;;;;;;2.70;2.00;;;;;;;8.11;74.57;100020.64;1785635;79;21264;-76
2022/05/30 03:29:06;;;;;;;6.50;2.30;;;;;;;8.11;74.65;100017.18;1785609;80;20992;-76
2022/05/30 03:31:34;;;;;;;4.00;1.87;;;;;;;8.10;74.75;100018.94;1785711;80;22083;-76
2022/05/30 03:34:01;;;;;;;3.53;2.07;;;;;;;8.12;74.92;100020.18;1785353;79;21101;-76
2022/05/30 03:36:29;;;;;;;3.53;2.00;;;;;;;8.12;74.98;100021.06;1785862;79;21039;-76
2022/05/30 03:39:01;;;;;;;2.37;1.57;;;;;;;8.11;74.91;100021.94;1785681;79;21008;-76
2022/05/30 03:41:46;;;;;;;4.37;1.90;;;;;;;8.11;74.96;100023.70;1785596;79;21030;-76
2022/05/30 03:44:22;;;;;;;4.10;1.73;;;;;;;8.11;74.98;100025.86;1785654;78;21282;-76
2022/05/30 03:46:49;;;;;;;3.87;2.10;;;;;;;8.14;75.11;100027.52;1785834;79;20980;-76
2022/05/30 03:49:16;;;;;;;2.47;1.90;;;;;;;8.14;75.11;100027.52;1785353;80;21036;-76
2022/05/30 03:51:43;;;;;;;2.67;1.67;;;;;;;8.17;75.21;100030.02;1785844;80;21035;-76
2022/05/30 03:54:11;;;;;;;3.00;2.13;;;;;;;8.18;75.26;100027.83;1785402;79;21047;-76
2022/05/30 03:56:38;;;;;;;3.47;1.90;;;;;;;8.22;75.51;100036.80;1785878;79;21079;-76
2022/05/30 03:59:07;;;;;;;3.23;2.10;;;;;;;8.28;75.73;100039.66;1772997;80;21000;-76
2022/05/30 04:01:34;;;;;;;4.57;2.00;;;;;;;8.36;75.84;100035.48;1749869;80;21546;-76
2022/05/30 04:04:02;;;;;;;3.33;2.00;;;;;;;8.43;75.93;100033.97;1741011;80;21064;-77
2022/05/30 04:06:29;;;;;;;2.73;1.83;;;;;;;8.52;76.20;100030.64;1748365;80;21009;-76
2022/05/30 04:08:57;;;;;;;3.50;2.03;;;;;;;8.60;76.27;100037.76;1748113;80;21957;-76
2022/05/30 04:11:26;;;;;;;4.60;2.50;;;;;;;8.66;76.51;100038.84;1687039;80;21052;-76
2022/05/30 04:14:01;;;;;;;3.17;2.03;;;;;;;8.69;76.51;100038.73;1744794;80;21728;-77
2022/05/30 04:16:35;;;;;;;3.23;2.17;;;;;;;8.79;76.56;100049.27;1748272;80;21539;-76
2022/05/30 04:19:04;;;;;;;5.22;2.77;;;;;;;8.86;76.63;100042.91;1747524;80;21593;-76
2022/05/30 04:21:31;;;;;;;4.43;2.17;;;;;;;8.95;76.72;100048.25;1748173;80;21239;-77
2022/05/30 04:23:58;;;;;;;2.63;1.90;;;;;;;9.03;76.75;100046.21;1761485;80;21091;-76
2022/05/30 04:26:27;;;;;;;3.17;1.70;;;;;;;9.13;76.63;100054.59;1785543;80;20988;-77
2022/05/30 04:28:54;;;;;;;4.47;2.20;;;;;;;9.19;76.32;100050.90;1785455;79;21466;-77
2022/05/30 04:31:40;;;;;;;3.97;2.13;;;;;;;9.25;76.05;100054.59;1785568;80;21027;-77
2022/05/30 04:34:08;;;;;;;3.83;1.73;;;;;;;9.30;76.05;100057.89;1787741;79;21067;-76
2022/05/30 04:36:36;;;;;;;3.47;2.10;;;;;;;9.36;75.97;100053.27;1785439;79;21074;-76
2022/05/30 04:39:03;;;;;;;3.60;2.07;;;;;;;9.45;75.99;100059.06;1785717;79;21099;-76
2022/05/30 04:41:35;;;;;;;3.40;1.73;;;;;;;9.53;75.84;100051.78;1779690;80;21095;-77
2022/05/30 04:44:21;;;;;;;3.77;2.43;;;;;;;9.60;75.74;100058.03;1785760;79;21063;-77
2022/05/30 04:47:11;;;;;;;6.07;2.57;;;;;;;9.69;75.86;100054.67;1785408;80;21130;-76
2022/05/30 04:49:38;;;;;;;5.03;2.70;;;;;;;9.75;75.96;100051.34;1785952;79;21028;-75
2022/05/30 04:52:07;;;;;;;4.57;2.57;;;;;;;9.82;75.95;100052.82;1779472;80;21043;-75
2022/05/30 04:54:35;;;;;;;7.13;3.07;;;;;;;9.88;76.03;100052.19;1764417;80;21012;-76
2022/05/30 04:57:06;;;;;;;5.77;3.10;;;;;;;9.92;75.93;100052.45;1778458;80;21034;-76
2022/05/30 04:59:34;;;;;;;4.47;3.03;;;;;;;9.94;75.91;100046.23;1782010;79;21494;-76
2022/05/30 05:02:04;;;;;;;3.63;2.50;;;;;;;9.99;76.10;100048.22;1784017;80;21039;-75
2022/05/30 05:04:33;;;;;;;4.05;2.75;;;;;;;10.04;76.13;100048.89;1785020;79;21028;-76
2022/05/30 05:07:04;;;;;;;7.00;3.10;;;;;;;10.10;76.17;100043.86;1780684;80;21037;-76
2022/05/30 05:09:43;;;;;;;5.17;3.10;;;;;;;10.16;76.13;100045.38;1776250;80;21238;-75
2022/05/30 05:12:23;;;;;;;5.03;3.20;;;;;;;10.21;76.12;100044.73;1782744;80;21831;-75
2022/05/30 05:15:10;;;;;;;7.10;3.20;;;;;;;10.22;75.88;100040.72;1717575;83;21074;-75
2022/05/30 05:17:39;;;;;;;5.27;3.30;;;;;;;10.25;75.70;100045.87;1687618;83;21106;-76
2022/05/30 05:20:08;;;;;;;5.97;3.23;;;;;;;10.26;75.58;100046.25;1733877;79;21063;-76
2022/05/30 05:22:35;;;;;;;5.17;3.10;;;;;;;10.23;75.39;100049.00;1781231;80;21000;-75
2022/05/30 05:25:03;;;;;;;3.63;2.73;;;;;;;10.21;75.34;100055.21;1781006;79;21784;-76
2022/05/30 05:27:39;;;;;;;7.17;3.30;;;;;;;10.21;75.54;100053.91;1782340;80;21474;-76
2022/05/30 05:30:10;;;;;;;6.30;3.33;;;;;;;10.24;75.61;100059.01;1773762;80;21090;-76
2022/05/30 05:32:37;;;;;;;5.07;3.10;;;;;;;10.30;75.73;100058.78;1772113;80;21049;-76
2022/05/30 05:35:06;;;;;;;6.70;3.37;;;;;;;10.35;75.58;100063.84;1771940;80;21271;-76
2022/05/30 05:37:34;;;;;;;6.10;3.47;;;;;;;10.38;75.46;100067.64;1763953;80;21942;-75
2022/05/30 05:40:16;;;;;;;6.00;3.50;;;;;;;10.43;75.61;100065.69;1727542;80;21039;-76
2022/05/30 05:42:43;;;;;;;6.23;3.50;;;;;;;10.47;75.33;100065.94;1771314;80;20992;-75
2022/05/30 05:45:11;;;;;;;4.80;3.47;;;;;;;10.51;75.41;100064.91;1772549;80;21057;-76
2022/05/30 05:47:38;;;;;;;8.97;3.67;;;;;;;10.56;75.35;100068.63;1745432;80;21649;-75
2022/05/30 05:50:07;;;;;;;5.70;3.53;;;;;;;10.60;75.27;100069.75;1735554;80;21896;-75
2022/05/30 05:52:34;;;;;;;7.90;3.30;;;;;;;10.66;75.45;100080.44;1736079;80;20998;-78
2022/05/30 05:55:04;;;;;;;6.27;3.70;;;;;;;10.72;75.25;100076.23;1734420;80;21053;-78
2022/05/30 05:57:33;;;;;;;4.07;3.07;;;;;;;10.78;75.26;100076.00;1736712;80;21053;-75
2022/05/30 06:00:00;;;;;;;4.97;3.20;;;;;;;10.87;75.10;100078.21;1740481;80;21058;-76
2022/05/30 06:02:30;;;;;;;6.00;3.00;;;;;;;10.93;75.01;100078.41;1740736;80;21126;-76
2022/05/30 06:04:57;;;;;;;5.50;3.03;;;;;;;11.01;74.92;100082.86;1740225;80;21009;-78
2022/05/30 06:07:43;;;;;;;4.13;2.63;;;;;;;11.09;75.01;100080.75;1734340;80;21633;-78
2022/05/30 06:10:25;;;;;;;3.57;2.77;;;;;;;11.20;74.92;100080.27;1737839;80;21049;-78
2022/05/30 06:12:57;;;;;;;3.67;2.80;;;;;;;11.27;74.50;100083.46;1740343;80;21010;-76
2022/05/30 06:15:24;;;;;;;4.73;2.97;;;;;;;11.34;74.22;100082.28;1740355;80;21149;-76
2022/05/30 06:18:05;;;;;;;3.40;2.37;;;;;;;11.38;73.98;100076.80;1739290;80;21502;-77
2022/05/30 06:20:32;;;;;;;5.63;3.00;;;;;;;11.46;74.10;100079.08;1740346;80;20990;-76
2022/05/30 06:22:59;;;;;;;5.10;3.00;;;;;;;11.54;73.82;100088.77;1740606;80;21040;-78
2022/05/30 06:25:45;;;;;;;7.57;2.97;;;;;;;11.57;73.67;100091.25;1737457;80;20968;-77
2022/05/30 06:28:23;;;;;;;4.87;2.87;;;;;;;11.62;73.30;100094.98;1716660;82;21120;-77
2022/05/30 06:30:55;;;;;;;5.40;2.77;;;;;;;11.66;73.26;100084.72;1786603;80;20999;-79
2022/05/30 06:33:22;;;;;;;5.90;2.83;;;;;;;11.73;73.08;100082.21;1789231;80;21023;-77
2022/05/30 06:35:51;;;;;;;7.50;3.00;;;;;;;11.77;72.91;100079.81;1788925;79;21046;-76
2022/05/30 06:38:20;;;;;;;5.53;3.20;;;;;;;11.80;72.73;100079.67;1751418;82;21059;-76
2022/05/30 06:40:49;;;;;;;3.75;2.58;;;;;;;11.84;72.63;100084.34;1751694;81;21320;-75
2022/05/30 06:43:20;;;;;;;4.97;2.70;;;;;;;11.84;72.27;100080.39;1751450;82;21059;-75
2022/05/30 06:45:49;;;;;;;5.47;2.90;;;;;;;11.84;72.16;100081.23;1711240;81;21075;-75
2022/05/30 06:48:35;;;;;;;5.22;3.40;;;;;;;11.86;72.05;100077.28;1789307;80;21082;-76
2022/05/30 06:51:14;;;;;;;4.47;2.92;;;;;;;11.90;71.94;100082.75;1771571;80;21054;-76
2022/05/30 06:53:43;;;;;;;4.58;2.60;;;;;;;11.93;71.80;100086.55;1788890;80;21121;-76
2022/05/30 06:56:18;;;;;;;6.65;3.22;;;;;;;11.96;71.77;100086.39;1751547;81;21046;-76
2022/05/30 06:58:50;;;;;;;4.60;2.72;;;;;;;12.02;71.85;100096.60;1751433;81;21052;-76
2022/05/30 07:01:22;;;;;;;5.20;2.85;;;;;;;12.08;71.60;100085.42;1751576;81;21344;-76
2022/05/30 07:04:07;;;;;;;6.50;2.98;;;;;;;12.11;71.34;100075.64;1789296;80;21054;-76
2022/05/30 07:06:54;;;;;;;4.78;3.10;;;;;;;12.11;71.34;100075.64;1683916;85;21947;-76
2022/05/30 07:09:23;;;;;;;5.53;2.90;;;;;;;12.18;71.28;100081.43;1682619;85;20991;-77
2022/05/30 07:12:02;;;;;;;5.47;3.30;;;;;;;12.18;71.06;100088.00;1711091;81;21040;-76
2022/05/30 07:14:34;;;;;;;5.85;3.33;;;;;;;12.14;70.73;100093.88;1751548;81;20985;-76
2022/05/30 07:17:01;;;;;;;;;;;;;;;12.09;70.67;100089.77;1754532;81;21012;-77
2022/05/30 07:19:30;;;;;;;6.35;3.20;;;;;;;12.02;70.80;100092.66;1751434;81;21106;-76
2022/05/30 07:21:59;;;;;;;8.15;3.33;;;;;;;12.00;70.80;100089.28;1732190;81;21050;-75
2022/05/30 07:24:45;;;;;;;6.62;3.27;;;;;;;11.99;70.90;100100.70;1789155;80;21450;-76
2022/05/30 07:27:31;;;;;;;4.50;3.40;;;;;;;12.01;70.92;100094.06;1751569;81;20997;-80
2022/05/30 07:30:16;;;;;;;3.83;3.05;;;;;;;12.03;70.95;100094.85;1760822;81;21047;-78
2022/05/30 07:33:02;;;;;;;5.40;3.15;;;;;;;12.06;70.88;100098.64;1761197;81;21106;-79
2022/05/30 07:35:48;;;;;;;4.08;2.67;;;;;;;12.09;70.97;100103.75;1760639;81;21051;-79
2022/05/30 07:38:20;;;;;;;4.12;2.90;;;;;;;12.18;71.11;100097.20;1707059;82;21049;-79
2022/05/30 07:41:05;;;;;;;3.72;2.75;;;;;;;12.28;71.21;100099.30;1732500;82;21091;-79
2022/05/30 07:43:36;;;;;;;6.75;2.90;;;;;;;12.42;71.01;100103.04;1742474;81;21061;-79
2022/05/30 07:46:18;;;;;;;3.70;2.27;;;;;;;12.47;70.55;100110.20;1742399;81;21133;-79
2022/05/30 07:48:53;;;;;;;4.87;2.45;;;;;;;12.48;70.46;100109.30;1742002;82;21041;-79
2022/05/30 07:51:23;;;;;;;4.87;2.52;;;;;;;12.56;70.37;100111.55;1743030;82;21048;-79
2022/05/30 07:53:54;;;;;;;3.40;2.80;;;;;;;12.63;70.44;100109.84;1742782;81;20955;-79
2022/05/30 07:56:24;;;;;;;6.85;3.10;;;;;;;12.75;70.25;100112.77;1742721;81;21530;-79
2022/05/30 07:58:52;;;;;;;6.87;3.03;;;;;;;12.83;69.87;100115.87;1742728;82;21198;-79
2022/05/30 08:01:21;;;;;;;5.05;3.20;;;;;;;12.83;69.87;100115.87;1742635;81;21341;-78
2022/05/30 08:03:51;;;;;;;4.00;2.92;;;;;;;12.89;69.81;100118.20;1742937;82;21085;-76
2022/05/30 08:06:26;;;;;;;5.22;2.83;;;;;;;12.93;69.78;100115.32;1741525;82;21476;-77
2022/05/30 08:09:10;;;;;;;5.25;3.22;;;;;;;13.00;69.67;100121.58;1742238;81;21052;-78
2022/05/30 08:11:39;;;;;;;5.78;2.90;;;;;;;13.01;69.48;100119.35;1742621;81;21124;-77
2022/05/30 08:14:08;;;;;;;5.55;2.65;;;;;;;13.08;69.57;100115.45;1742826;81;21052;-77
2022/05/30 08:16:37;;;;;;;5.33;2.70;;;;;;;13.18;69.65;100114.90;1742576;82;21081;-77
2022/05/30 08:19:06;;;;;;;6.23;2.50;;;;;;;13.29;69.33;100114.84;1742901;82;21050;-76
2022/05/30 08:21:35;;;;;;;4.85;2.50;;;;;;;13.39;69.48;100111.64;1742556;82;21601;-76
2022/05/30 08:24:02;;;;;;;5.05;2.55;;;;;;;13.53;69.54;100117.49;1742740;81;21540;-78
2022/05/30 08:26:30;;;;;;;5.80;2.60;;;;;;;13.65;69.19;100123.03;1742535;82;21021;-77
2022/05/30 08:28:58;;;;;;;4.42;2.55;;;;;;;13.72;69.24;100119.14;1745703;81;21031;-77
2022/05/30 08:31:26;;;;;;;5.12;2.95;;;;;;;13.79;68.66;100116.53;1771984;80;21048;-77
2022/05/30 08:34:11;;;;;;;3.37;2.47;;;;;;;13.82;68.52;100115.05;1772016;81;21367;-76
2022/05/30 08:36:40;;;;;;;4.95;2.37;;;;;;;13.88;68.53;100109.43;1772351;80;21697;-77
2022/05/30 08:41:54;;;;;;;4.60;2.62;;;;;;;14.00;68.15;100110.09;1729121;81;21023;-77
2022/05/30 08:44:40;;;;;;;4.00;2.25;;;;;;;14.06;67.99;100113.69;1734522;81;21058;-76
2022/05/30 08:47:44;;;;;;;4.55;2.87;;;;;;;14.17;68.22;100111.77;1758048;80;21523;-76
2022/05/30 08:50:23;;;;;;;4.92;2.27;;;;;;;14.34;67.94;100112.60;1753995;80;21128;-77
2022/05/30 08:53:31;;;;;;;5.75;3.02;;;;;;;14.41;67.11;100105.58;1709246;81;21017;-76
2022/05/30 08:56:16;;;;;;;4.03;2.40;;;;;;;14.46;66.80;100105.30;1729385;81;21014;-75
2022/05/30 08:59:26;;;;;;;3.12;2.17;;;;;;;14.53;66.73;100109.32;1726713;81;21002;-75
2022/05/30 09:02:26;;;;;;;6.10;2.20;;;;;;;14.64;66.55;100110.02;1659107;84;21120;-76
2022/05/30 09:05:20;;;;;;;3.83;1.82;;;;;;;14.81;65.64;100113.82;1690058;83;22191;-75
2022/05/30 09:07:54;;;;;;;3.42;1.60;;;;;;;14.95;64.78;100116.95;1710333;83;21088;-75
2022/05/30 09:10:34;;;;;;;4.45;1.98;;;;;;;15.04;64.08;100111.13;1711156;83;21033;-75
2022/05/30 09:13:21;;;;;;;5.87;2.65;;;;;;;15.20;64.05;100106.25;1707481;83;21469;-76
2022/05/30 09:16:08;;;;;;;3.42;2.20;;;;;;;15.36;63.75;100106.53;1625186;86;21126;-76
2022/05/30 09:18:45;;;;;;;6.08;2.67;;;;;;;15.50;63.26;100115.41;1651922;86;21149;-76
2022/05/30 09:21:18;;;;;;;3.17;2.30;;;;;;;15.59;63.04;100108.22;1648106;86;21578;-76
2022/05/30 09:23:47;;;;;;;3.70;2.27;;;;;;;15.68;62.58;100112.95;1619656;86;21107;-76
2022/05/30 09:26:38;;;;;;;4.20;2.10;;;;;;;15.77;62.45;100110.22;1653854;85;21593;-76
2022/05/30 09:29:30;;;;;;;3.75;2.27;;;;;;;15.84;62.56;100118.13;1612697;87;21134;-77
2022/05/30 09:32:39;;;;;;;4.67;2.40;;;;;;;15.76;62.98;100121.72;1609035;87;21246;-79
2022/05/30 09:35:30;;;;;;;2.35;1.90;;;;;;;15.45;62.80;100124.92;1608754;87;21092;-80
2022/05/30 09:38:23;;;;;;;5.35;2.35;;;;;;;15.12;63.83;100122.55;1591854;89;21149;-81
2022/05/30 09:41:06;;;;;;;5.17;2.60;;;;;;;14.94;64.72;100121.87;1622494;87;21134;-81
2022/05/30 09:43:53;;;;;;;3.62;2.20;;;;;;;14.82;64.81;100122.58;1643118;85;21087;-81
2022/05/30 09:46:34;;;;;;;3.58;2.00;;;;;;;14.74;65.33;100123.02;1642024;85;21156;-81
2022/05/30 09:49:25;;;;;;;3.72;2.27;;;;;;;14.68;65.64;100124.23;1642154;85;21047;-80
2022/05/30 09:52:01;;;;;;;5.87;2.62;;;;;;;14.63;64.98;100123.68;1650266;83;21087;-80
2022/05/30 09:54:37;;;;;;;4.33;2.20;;;;;;;14.65;65.36;100116.98;1713611;82;21105;-80
2022/05/30 09:57:24;;;;;;;3.62;1.92;;;;;;;14.84;65.93;100118.91;1706280;82;21112;-79
2022/05/30 10:00:16;;;;;;;6.08;2.52;;;;;;;15.04;65.71;100122.16;1706132;82;21097;-79
2022/05/30 10:02:45;;;;;;;4.97;2.60;;;;;;;15.12;64.69;100125.19;1705922;82;20982;-79
2022/05/30 10:05:25;;;;;;;5.70;2.55;;;;;;;15.07;63.86;100116.21;1637727;84;21086;-79
2022/05/30 10:08:04;;;;;;;3.60;2.00;;;;;;;15.01;63.60;100117.91;1669207;84;21056;-78
2022/05/30 10:10:40;;;;;;;3.98;1.70;;;;;;;14.99;63.15;100115.82;1666122;84;26752;-78
2022/05/30 10:13:10;;;;;;;4.05;2.22;;;;;;;15.02;63.49;100115.66;1668736;84;21814;-78
2022/05/30 10:15:58;;;;;;;5.03;2.00;;;;;;;15.15;63.33;100108.67;1668715;84;21044;-78
2022/05/30 10:18:36;;;;;;;4.65;1.87;;;;;;;15.30;63.37;100106.08;1668800;84;21148;-78
2022/05/30 10:21:28;;;;;;;3.93;2.20;;;;;;;15.50;62.75;100104.84;1669089;84;21008;-77
2022/05/30 10:31:09;;;;;;;4.17;2.00;;;;;;;15.83;61.85;100101.91;1674404;85;21602;-78
2022/05/30 10:34:07;;;;;;;2.92;1.90;;;;;;;15.77;61.07;100095.69;1765985;81;21059;-77
2022/05/30 10:37:05;;;;;;;3.62;2.00;;;;;;;15.72;60.71;100094.65;1766912;81;21012;-76
2022/05/30 10:39:50;;;;;;;2.67;2.00;;;;;;;15.67;60.96;100097.17;1765913;80;21441;-76
2022/05/30 10:42:38;;;;;;;2.50;1.50;;;;;;;15.73;60.87;100094.17;1766460;79;21989;-76
2022/05/30 10:45:19;;;;;;;4.65;1.98;;;;;;;15.82;60.74;100094.90;1651119;86;21232;-76
2022/05/30 10:47:51;;;;;;;3.50;1.50;;;;;;;16.34;60.95;100092.85;1628064;87;21114;-76
2022/05/30 10:50:42;;;;;;;3.77;1.85;;;;;;;16.85;60.35;100083.74;1677625;85;21018;-75
2022/05/30 10:53:06;;;;;;;8.50;2.50;;;;;;;17.43;60.03;100086.80;1675155;85;21061;-76
2022/05/30 10:55:43;;;;;;;2.45;1.37;;;;;;;17.95;59.27;100087.53;1628437;85;21867;-76
2022/05/30 10:58:33;;;;;;;4.03;1.45;;;;;;;18.43;58.33;100079.59;1677407;85;21069;-75
2022/05/30 11:01:11;;;;;;;4.08;1.50;;;;;;;18.68;57.59;100078.58;1677567;85;21064;-75
2022/05/30 11:03:44;;;;;;;;;;;;;;;18.53;56.42;100077.91;1678951;84;21586;-76
2022/05/30 11:06:20;;;;;;;3.75;1.70;;;;;;;18.71;55.58;100091.13;1677446;85;20485;-76
2022/05/30 11:09:21;;;;;;;2.72;1.20;;;;;;;18.98;55.47;100087.83;1677479;85;21962;-75
2022/05/30 11:12:12;;;;;;;5.62;1.47;;;;;;;19.33;54.88;100088.59;1677815;85;20946;-75
2022/05/30 11:14:59;;;;;;;3.37;1.20;;;;;;;19.75;54.73;100083.52;1676949;85;21045;-76
2022/05/30 11:17:52;;;;;;;4.10;1.40;;;;;;;20.24;53.89;100084.85;1677474;85;21554;-76
2022/05/30 11:20:33;;;;;;;3.85;1.32;;;;;;;20.76;53.19;100089.02;1668571;85;21486;-75
2022/05/30 11:23:03;;;;;;;2.90;1.22;;;;;;;21.15;52.31;100079.92;1720161;82;21439;-76
2022/05/30 11:26:03;;;;;;;3.33;1.47;;;;;;;21.17;51.33;100079.27;1761119;81;21021;-76
2022/05/30 11:29:05;;;;;;;2.58;1.45;;;;;;;21.27;50.85;100088.17;1761056;81;21037;-75
2022/05/30 11:32:02;;;;;;;2.95;1.10;;;;;;;21.43;50.00;100081.05;1761152;81;21039;-76
2022/05/30 11:34:37;;;;;;;7.62;1.55;;;;;;;21.30;49.28;100090.56;1761142;81;21107;-76
2022/05/30 11:37:46;;;;;;;3.40;1.17;;;;;;;20.86;48.46;100089.06;1761146;81;21180;-76
2022/05/30 11:40:40;;;;;;;4.85;1.32;;;;;;;20.44;48.69;100085.02;1761205;81;21040;-76
2022/05/30 11:43:28;;;;;;;2.33;1.25;;;;;;;20.00;48.52;100089.52;1761192;81;21045;-75
2022/05/30 11:46:15;;;;;;;4.78;1.42;;;;;;;19.49;48.37;100087.40;1786287;79;21011;-76
2022/05/30 11:49:07;;;;;;;2.95;1.30;;;;;;;18.99;48.22;100086.89;1760982;81;39077;-75
2022/05/30 11:51:54;;;;;;;2.95;1.05;;;;;;;18.55;48.58;100077.33;1761119;81;21127;-76
2022/05/30 11:54:56;;;;;;;3.80;1.40;;;;;;;18.25;48.83;100087.09;1760444;80;20960;-77
2022/05/30 11:57:49;;;;;;;3.05;1.20;;;;;;;18.02;49.42;100091.45;1754078;81;21094;-76
2022/05/30 12:00:37;;;;;;;2.87;1.25;;;;;;;17.62;49.22;100092.94;1760257;79;21013;-75
2022/05/30 12:03:35;;;;;;;4.30;1.22;;;;;;;17.36;49.75;100089.02;1761024;81;21020;-75
2022/05/30 12:06:26;;;;;;;5.30;1.45;;;;;;;17.26;50.08;100091.93;1761047;81;21134;-75
2022/05/30 12:09:43;;;;;;;3.75;1.30;;;;;;;17.25;50.57;100093.38;1787876;80;21031;-76
2022/05/30 12:12:32;;;;;;;4.25;1.40;;;;;;;17.48;50.94;100085.97;1761026;81;21092;-76
2022/05/30 12:15:25;;;;;;;5.40;1.55;;;;;;;18.21;50.75;100088.30;1788067;80;22049;-75
2022/05/30 12:24:23;;;;;;;1.95;0.82;;;;;;;18.91;48.34;100112.21;1761047;81;21032;-75
2022/05/30 12:26:56;;;;;;;2.17;0.70;;;;;;;18.24;47.87;100126.05;1760529;81;21485;-75
2022/05/30 12:29:42;;;;;;;2.05;0.72;;;;;;;17.82;48.30;100132.66;1758841;80;21088;-76
2022/05/30 12:32:32;;;;;;;1.22;0.72;;;;;;;17.48;48.48;100132.34;1744708;82;21537;-76
2022/05/30 12:35:21;;;;;;;1.27;0.78;;;;;;;17.00;48.57;100137.43;1744603;82;21491;-75